sensor_id;sensor_type;location;lat;lon;timestamp;temperature;humidity
1592;DHT22;789;51.612;7.510;2022-08-27T00:01:54;21.40;1.00
1592;DHT22;789;51.612;7.510;2022-08-27T00:04:21;21.30;1.00
1592;DHT22;789;51.612;7.510;2022-08-27T00:06:48;21.30;1.00
1592;DHT22;789;51.612;7.510;2022-08-27T00:09:15;21.20;1.00
1592;DHT22;789;51.612;7.510;2022-08-27T00:11:42;21.20;1.00
1592;DHT22;789;51.612;7.510;2022-08-27T00:14:11;21.20;1.00
1592;DHT22;789;51.612;7.510;2022-08-27T00:16:40;21.20;1.00
1592;DHT22;789;51.612;7.510;2022-08-27T00:19:07;21.10;1.00
1592;DHT22;789;51.612;7.510;2022-08-27T00:21:34;21.10;1.00
1592;DHT22;789;51.612;7.510;2022-08-27T00:24:01;21.10;1.00
1592;DHT22;789;51.612;7.510;2022-08-27T00:26:27;21.20;1.00
1592;DHT22;789;51.612;7.510;2022-08-27T00:28:54;21.10;1.00
1592;DHT22;789;51.612;7.510;2022-08-27T00:31:21;21.10;1.00
1592;DHT22;789;51.612;7.510;2022-08-27T00:33:49;21.10;1.00
1592;DHT22;789;51.612;7.510;2022-08-27T00:36:16;21.00;1.00
1592;DHT22;789;51.612;7.510;2022-08-27T00:38:43;21.10;1.00
1592;DHT22;789;51.612;7.510;2022-08-27T00:41:11;21.00;1.00
1592;DHT22;789;51.612;7.510;2022-08-27T00:43:47;21.00;1.00
1592;DHT22;789;51.612;7.510;2022-08-27T00:46:21;21.00;1.00
1592;DHT22;789;51.612;7.510;2022-08-27T00:48:51;21.00;1.00
1592;DHT22;789;51.612;7.510;2022-08-27T00:51:19;21.00;1.00
1592;DHT22;789;51.612;7.510;2022-08-27T00:53:47;21.00;1.00
1592;DHT22;789;51.612;7.510;2022-08-27T00:56:17;21.00;1.00
1592;DHT22;789;51.612;7.510;2022-08-27T00:58:47;20.90;1.00
1592;DHT22;789;51.612;7.510;2022-08-27T01:01:26;20.90;1.00
1592;DHT22;789;51.612;7.510;2022-08-27T01:03:57;20.90;1.00
1592;DHT22;789;51.612;7.510;2022-08-27T01:06:34;20.90;1.00
1592;DHT22;789;51.612;7.510;2022-08-27T01:09:07;20.90;1.00
1592;DHT22;789;51.612;7.510;2022-08-27T01:11:38;21.00;1.00
1592;DHT22;789;51.612;7.510;2022-08-27T01:14:05;21.00;1.00
1592;DHT22;789;51.612;7.510;2022-08-27T01:16:35;20.90;1.00
1592;DHT22;789;51.612;7.510;2022-08-27T01:19:06;20.90;1.00
1592;DHT22;789;51.612;7.510;2022-08-27T01:21:37;20.90;1.00
1592;DHT22;789;51.612;7.510;2022-08-27T01:27:04;20.80;1.00
1592;DHT22;789;51.612;7.510;2022-08-27T01:29:33;20.80;1.00
1592;DHT22;789;51.612;7.510;2022-08-27T01:32:06;20.80;1.00
1592;DHT22;789;51.612;7.510;2022-08-27T01:34:33;20.70;1.00
1592;DHT22;789;51.612;7.510;2022-08-27T01:37:00;20.70;1.00
1592;DHT22;789;51.612;7.510;2022-08-27T01:39:28;20.70;1.00
1592;DHT22;789;51.612;7.510;2022-08-27T01:42:03;20.70;1.00
1592;DHT22;789;51.612;7.510;2022-08-27T01:44:40;20.70;1.00
1592;DHT22;789;51.612;7.510;2022-08-27T01:47:07;20.60;1.00
1592;DHT22;789;51.612;7.510;2022-08-27T01:49:33;20.60;1.00
1592;DHT22;789;51.612;7.510;2022-08-27T01:52:00;20.60;1.00
1592;DHT22;789;51.612;7.510;2022-08-27T01:54:27;20.60;1.00
1592;DHT22;789;51.612;7.510;2022-08-27T01:56:55;20.50;1.00
1592;DHT22;789;51.612;7.510;2022-08-27T01:59:24;20.60;1.00
1592;DHT22;789;51.612;7.510;2022-08-27T02:01:52;20.50;1.00
1592;DHT22;789;51.612;7.510;2022-08-27T02:04:19;20.50;1.00
1592;DHT22;789;51.612;7.510;2022-08-27T02:06:46;20.50;1.00
1592;DHT22;789;51.612;7.510;2022-08-27T02:09:13;20.60;1.00
1592;DHT22;789;51.612;7.510;2022-08-27T02:11:39;20.60;1.00
1592;DHT22;789;51.612;7.510;2022-08-27T02:14:06;20.60;1.00
1592;DHT22;789;51.612;7.510;2022-08-27T02:16:34;20.60;1.00
1592;DHT22;789;51.612;7.510;2022-08-27T02:19:01;20.50;1.00
1592;DHT22;789;51.612;7.510;2022-08-27T02:21:28;20.50;1.00
1592;DHT22;789;51.612;7.510;2022-08-27T02:23:57;20.50;1.00
1592;DHT22;789;51.612;7.510;2022-08-27T02:26:24;20.50;1.00
1592;DHT22;789;51.612;7.510;2022-08-27T02:28:52;20.50;1.00
1592;DHT22;789;51.612;7.510;2022-08-27T02:31:19;20.40;1.00
1592;DHT22;789;51.612;7.510;2022-08-27T02:33:47;20.50;1.00
1592;DHT22;789;51.612;7.510;2022-08-27T02:36:14;20.50;1.00
1592;DHT22;789;51.612;7.510;2022-08-27T02:38:42;20.60;1.00
1592;DHT22;789;51.612;7.510;2022-08-27T02:41:09;20.60;1.00
1592;DHT22;789;51.612;7.510;2022-08-27T02:43:36;20.50;1.00
1592;DHT22;789;51.612;7.510;2022-08-27T02:46:03;20.50;1.00
1592;DHT22;789;51.612;7.510;2022-08-27T02:48:30;20.50;1.00
1592;DHT22;789;51.612;7.510;2022-08-27T02:50:58;20.50;1.00
1592;DHT22;789;51.612;7.510;2022-08-27T02:53:24;20.50;1.00
1592;DHT22;789;51.612;7.510;2022-08-27T02:55:52;20.40;1.00
1592;DHT22;789;51.612;7.510;2022-08-27T02:58:19;20.40;1.00
1592;DHT22;789;51.612;7.510;2022-08-27T03:00:46;20.40;1.00
1592;DHT22;789;51.612;7.510;2022-08-27T03:03:13;20.40;1.00
1592;DHT22;789;51.612;7.510;2022-08-27T03:05:39;20.40;1.00
1592;DHT22;789;51.612;7.510;2022-08-27T03:08:07;20.40;1.00
1592;DHT22;789;51.612;7.510;2022-08-27T03:10:35;20.40;1.00
1592;DHT22;789;51.612;7.510;2022-08-27T03:13:01;20.40;1.00
1592;DHT22;789;51.612;7.510;2022-08-27T03:15:28;20.40;1.00
1592;DHT22;789;51.612;7.510;2022-08-27T03:17:55;20.40;1.00
1592;DHT22;789;51.612;7.510;2022-08-27T03:20:41;20.40;1.00
1592;DHT22;789;51.612;7.510;2022-08-27T03:23:10;20.50;1.00
1592;DHT22;789;51.612;7.510;2022-08-27T03:25:42;20.50;1.00
1592;DHT22;789;51.612;7.510;2022-08-27T03:28:10;20.50;1.00
1592;DHT22;789;51.612;7.510;2022-08-27T03:30:38;20.50;1.00
1592;DHT22;789;51.612;7.510;2022-08-27T03:33:05;20.40;1.00
1592;DHT22;789;51.612;7.510;2022-08-27T03:35:32;20.50;1.00
1592;DHT22;789;51.612;7.510;2022-08-27T03:37:59;20.50;1.00
1592;DHT22;789;51.612;7.510;2022-08-27T03:40:28;20.50;1.00
1592;DHT22;789;51.612;7.510;2022-08-27T03:42:54;20.50;1.00
1592;DHT22;789;51.612;7.510;2022-08-27T03:45:21;20.50;1.00
1592;DHT22;789;51.612;7.510;2022-08-27T03:47:48;20.50;1.00
1592;DHT22;789;51.612;7.510;2022-08-27T03:50:15;20.40;1.00
1592;DHT22;789;51.612;7.510;2022-08-27T03:52:41;20.40;1.00
1592;DHT22;789;51.612;7.510;2022-08-27T03:55:09;20.30;1.00
1592;DHT22;789;51.612;7.510;2022-08-27T03:57:37;20.40;1.00
1592;DHT22;789;51.612;7.510;2022-08-27T04:00:07;20.30;1.00
1592;DHT22;789;51.612;7.510;2022-08-27T04:02:34;20.30;1.00
1592;DHT22;789;51.612;7.510;2022-08-27T04:05:02;20.30;1.00
1592;DHT22;789;51.612;7.510;2022-08-27T04:07:29;20.30;1.00
1592;DHT22;789;51.612;7.510;2022-08-27T04:09:56;20.40;1.00
1592;DHT22;789;51.612;7.510;2022-08-27T04:12:23;20.30;1.00
1592;DHT22;789;51.612;7.510;2022-08-27T04:14:52;20.30;1.00
1592;DHT22;789;51.612;7.510;2022-08-27T04:17:19;20.30;1.00
1592;DHT22;789;51.612;7.510;2022-08-27T04:19:46;20.40;1.00
1592;DHT22;789;51.612;7.510;2022-08-27T04:22:12;20.40;1.00
1592;DHT22;789;51.612;7.510;2022-08-27T04:24:39;20.40;1.00
1592;DHT22;789;51.612;7.510;2022-08-27T04:27:06;20.40;1.00
1592;DHT22;789;51.612;7.510;2022-08-27T04:29:33;20.40;1.00
1592;DHT22;789;51.612;7.510;2022-08-27T04:32:02;20.40;1.00
1592;DHT22;789;51.612;7.510;2022-08-27T04:34:29;20.40;1.00
1592;DHT22;789;51.612;7.510;2022-08-27T04:36:56;20.40;1.00
1592;DHT22;789;51.612;7.510;2022-08-27T04:39:24;20.40;1.00
1592;DHT22;789;51.612;7.510;2022-08-27T04:41:52;20.40;1.00
1592;DHT22;789;51.612;7.510;2022-08-27T04:44:20;20.40;1.00
1592;DHT22;789;51.612;7.510;2022-08-27T04:46:48;20.40;1.00
1592;DHT22;789;51.612;7.510;2022-08-27T04:49:16;20.40;1.00
1592;DHT22;789;51.612;7.510;2022-08-27T04:51:43;20.30;1.00
1592;DHT22;789;51.612;7.510;2022-08-27T04:54:10;20.30;1.00
1592;DHT22;789;51.612;7.510;2022-08-27T04:56:37;20.30;1.00
1592;DHT22;789;51.612;7.510;2022-08-27T04:59:08;20.30;1.00
1592;DHT22;789;51.612;7.510;2022-08-27T05:01:36;20.30;1.00
1592;DHT22;789;51.612;7.510;2022-08-27T05:04:03;20.20;1.00
1592;DHT22;789;51.612;7.510;2022-08-27T05:06:32;20.40;1.00
1592;DHT22;789;51.612;7.510;2022-08-27T05:08:59;20.20;1.00
1592;DHT22;789;51.612;7.510;2022-08-27T05:11:26;20.20;1.00
1592;DHT22;789;51.612;7.510;2022-08-27T05:13:57;20.20;1.00
1592;DHT22;789;51.612;7.510;2022-08-27T05:16:24;20.20;1.00
1592;DHT22;789;51.612;7.510;2022-08-27T05:18:51;20.20;1.00
1592;DHT22;789;51.612;7.510;2022-08-27T05:21:20;20.20;1.00
1592;DHT22;789;51.612;7.510;2022-08-27T05:23:49;20.20;1.00
1592;DHT22;789;51.612;7.510;2022-08-27T05:26:16;20.20;1.00
1592;DHT22;789;51.612;7.510;2022-08-27T05:28:43;20.10;1.00
1592;DHT22;789;51.612;7.510;2022-08-27T05:31:11;20.20;1.00
1592;DHT22;789;51.612;7.510;2022-08-27T05:33:40;20.20;1.00
1592;DHT22;789;51.612;7.510;2022-08-27T05:36:14;20.30;1.00
1592;DHT22;789;51.612;7.510;2022-08-27T05:38:41;20.30;1.00
1592;DHT22;789;51.612;7.510;2022-08-27T05:41:10;20.30;1.00
1592;DHT22;789;51.612;7.510;2022-08-27T05:43:39;20.30;1.00
1592;DHT22;789;51.612;7.510;2022-08-27T05:46:08;20.30;1.00
1592;DHT22;789;51.612;7.510;2022-08-27T05:48:37;20.30;1.00
1592;DHT22;789;51.612;7.510;2022-08-27T05:51:10;20.30;1.00
1592;DHT22;789;51.612;7.510;2022-08-27T05:53:38;20.30;1.00
1592;DHT22;789;51.612;7.510;2022-08-27T05:56:12;20.40;1.00
1592;DHT22;789;51.612;7.510;2022-08-27T05:58:39;20.40;1.00
1592;DHT22;789;51.612;7.510;2022-08-27T06:01:24;20.40;1.00
1592;DHT22;789;51.612;7.510;2022-08-27T06:03:51;20.50;1.00
1592;DHT22;789;51.612;7.510;2022-08-27T06:06:20;20.50;1.00
1592;DHT22;789;51.612;7.510;2022-08-27T06:08:47;20.50;1.00
1592;DHT22;789;51.612;7.510;2022-08-27T06:11:16;20.60;1.00
1592;DHT22;789;51.612;7.510;2022-08-27T06:13:44;20.60;1.00
1592;DHT22;789;51.612;7.510;2022-08-27T06:16:13;20.60;1.00
1592;DHT22;789;51.612;7.510;2022-08-27T06:18:42;20.60;1.00
1592;DHT22;789;51.612;7.510;2022-08-27T06:21:09;20.50;1.00
1592;DHT22;789;51.612;7.510;2022-08-27T06:23:37;20.50;1.00
1592;DHT22;789;51.612;7.510;2022-08-27T06:26:05;20.50;1.00
1592;DHT22;789;51.612;7.510;2022-08-27T06:28:34;20.60;1.00
1592;DHT22;789;51.612;7.510;2022-08-27T06:31:07;20.60;1.00
1592;DHT22;789;51.612;7.510;2022-08-27T06:33:34;20.60;1.00
1592;DHT22;789;51.612;7.510;2022-08-27T06:36:04;20.60;1.00
1592;DHT22;789;51.612;7.510;2022-08-27T06:38:31;20.60;1.00
1592;DHT22;789;51.612;7.510;2022-08-27T06:40:58;20.70;1.00
1592;DHT22;789;51.612;7.510;2022-08-27T06:43:25;20.80;1.00
1592;DHT22;789;51.612;7.510;2022-08-27T06:45:53;20.90;1.00
1592;DHT22;789;51.612;7.510;2022-08-27T06:48:20;20.90;1.00
1592;DHT22;789;51.612;7.510;2022-08-27T06:50:47;20.90;1.00
1592;DHT22;789;51.612;7.510;2022-08-27T06:53:19;21.00;1.00
1592;DHT22;789;51.612;7.510;2022-08-27T06:55:53;21.00;1.00
1592;DHT22;789;51.612;7.510;2022-08-27T06:58:20;20.90;1.00
1592;DHT22;789;51.612;7.510;2022-08-27T07:00:48;21.00;1.00
1592;DHT22;789;51.612;7.510;2022-08-27T07:03:20;21.10;1.00
1592;DHT22;789;51.612;7.510;2022-08-27T07:05:46;21.10;1.00
1592;DHT22;789;51.612;7.510;2022-08-27T07:08:13;21.20;1.00
1592;DHT22;789;51.612;7.510;2022-08-27T07:10:40;21.20;1.00
1592;DHT22;789;51.612;7.510;2022-08-27T07:13:10;21.30;1.00
1592;DHT22;789;51.612;7.510;2022-08-27T07:15:37;21.30;1.00
1592;DHT22;789;51.612;7.510;2022-08-27T07:18:05;21.30;1.00
1592;DHT22;789;51.612;7.510;2022-08-27T07:20:39;21.40;1.00
1592;DHT22;789;51.612;7.510;2022-08-27T07:23:06;21.50;1.00
1592;DHT22;789;51.612;7.510;2022-08-27T07:25:33;21.50;1.00
1592;DHT22;789;51.612;7.510;2022-08-27T07:28:00;21.60;1.00
1592;DHT22;789;51.612;7.510;2022-08-27T07:30:30;21.70;1.00
1592;DHT22;789;51.612;7.510;2022-08-27T07:32:58;21.50;1.00
1592;DHT22;789;51.612;7.510;2022-08-27T07:35:28;21.80;1.00
1592;DHT22;789;51.612;7.510;2022-08-27T07:37:57;22.20;1.00
1592;DHT22;789;51.612;7.510;2022-08-27T07:40:24;21.90;1.00
1592;DHT22;789;51.612;7.510;2022-08-27T07:42:50;21.90;1.00
1592;DHT22;789;51.612;7.510;2022-08-27T07:45:43;21.90;1.00
1592;DHT22;789;51.612;7.510;2022-08-27T07:48:10;21.90;1.00
1592;DHT22;789;51.612;7.510;2022-08-27T07:50:37;21.90;1.00
1592;DHT22;789;51.612;7.510;2022-08-27T07:53:05;22.00;1.00
1592;DHT22;789;51.612;7.510;2022-08-27T07:55:34;22.00;1.00
1592;DHT22;789;51.612;7.510;2022-08-27T07:58:01;22.00;1.00
1592;DHT22;789;51.612;7.510;2022-08-27T08:00:28;22.00;1.00
1592;DHT22;789;51.612;7.510;2022-08-27T08:02:57;22.10;1.00
1592;DHT22;789;51.612;7.510;2022-08-27T08:05:24;22.20;1.00
1592;DHT22;789;51.612;7.510;2022-08-27T08:07:51;22.30;1.00
1592;DHT22;789;51.612;7.510;2022-08-27T08:10:19;22.40;1.00
1592;DHT22;789;51.612;7.510;2022-08-27T08:12:48;22.60;1.00
1592;DHT22;789;51.612;7.510;2022-08-27T08:15:16;22.70;1.00
1592;DHT22;789;51.612;7.510;2022-08-27T08:17:43;22.80;1.00
1592;DHT22;789;51.612;7.510;2022-08-27T08:20:13;22.70;1.00
1592;DHT22;789;51.612;7.510;2022-08-27T08:22:40;22.70;1.00
1592;DHT22;789;51.612;7.510;2022-08-27T08:25:08;22.80;1.00
1592;DHT22;789;51.612;7.510;2022-08-27T08:27:36;22.80;1.00
1592;DHT22;789;51.612;7.510;2022-08-27T08:30:03;22.80;1.00
1592;DHT22;789;51.612;7.510;2022-08-27T08:32:30;22.90;1.00
1592;DHT22;789;51.612;7.510;2022-08-27T08:34:58;23.00;1.00
1592;DHT22;789;51.612;7.510;2022-08-27T08:37:25;23.00;1.00
1592;DHT22;789;51.612;7.510;2022-08-27T08:39:54;23.10;1.00
1592;DHT22;789;51.612;7.510;2022-08-27T08:42:32;23.20;1.00
1592;DHT22;789;51.612;7.510;2022-08-27T08:45:12;23.40;1.00
1592;DHT22;789;51.612;7.510;2022-08-27T08:47:43;23.50;1.00
1592;DHT22;789;51.612;7.510;2022-08-27T08:50:15;23.60;1.00
1592;DHT22;789;51.612;7.510;2022-08-27T08:52:49;23.60;1.00
1592;DHT22;789;51.612;7.510;2022-08-27T08:55:36;23.60;1.00
1592;DHT22;789;51.612;7.510;2022-08-27T08:58:10;23.60;1.00
1592;DHT22;789;51.612;7.510;2022-08-27T09:00:42;23.50;1.00
1592;DHT22;789;51.612;7.510;2022-08-27T09:03:10;23.50;1.00
1592;DHT22;789;51.612;7.510;2022-08-27T09:05:41;23.30;1.00
1592;DHT22;789;51.612;7.510;2022-08-27T09:08:15;23.40;1.00
1592;DHT22;789;51.612;7.510;2022-08-27T09:11:02;23.40;1.00
1592;DHT22;789;51.612;7.510;2022-08-27T09:13:34;23.40;1.00
1592;DHT22;789;51.612;7.510;2022-08-27T09:16:04;23.50;1.00
1592;DHT22;789;51.612;7.510;2022-08-27T09:18:35;23.50;1.00
1592;DHT22;789;51.612;7.510;2022-08-27T09:21:09;23.60;1.00
1592;DHT22;789;51.612;7.510;2022-08-27T09:23:42;23.60;1.00
1592;DHT22;789;51.612;7.510;2022-08-27T09:26:19;23.70;1.00
1592;DHT22;789;51.612;7.510;2022-08-27T09:28:46;23.70;1.00
1592;DHT22;789;51.612;7.510;2022-08-27T09:31:35;23.70;1.00
1592;DHT22;789;51.612;7.510;2022-08-27T09:34:05;23.60;1.00
1592;DHT22;789;51.612;7.510;2022-08-27T09:36:32;23.60;1.00
1592;DHT22;789;51.612;7.510;2022-08-27T09:39:03;23.50;1.00
1592;DHT22;789;51.612;7.510;2022-08-27T09:41:37;23.50;1.00
1592;DHT22;789;51.612;7.510;2022-08-27T09:44:09;23.40;1.00
1592;DHT22;789;51.612;7.510;2022-08-27T09:46:37;23.30;1.00
1592;DHT22;789;51.612;7.510;2022-08-27T09:49:11;23.20;1.00
1592;DHT22;789;51.612;7.510;2022-08-27T09:51:40;23.10;1.00
1592;DHT22;789;51.612;7.510;2022-08-27T09:54:07;23.20;1.00
1592;DHT22;789;51.612;7.510;2022-08-27T09:56:36;23.20;1.00
1592;DHT22;789;51.612;7.510;2022-08-27T09:59:05;23.20;1.00
1592;DHT22;789;51.612;7.510;2022-08-27T10:01:34;23.10;1.00
1592;DHT22;789;51.612;7.510;2022-08-27T10:04:07;23.00;1.00
1592;DHT22;789;51.612;7.510;2022-08-27T10:06:35;23.10;1.00
1592;DHT22;789;51.612;7.510;2022-08-27T10:09:08;23.00;1.00
1592;DHT22;789;51.612;7.510;2022-08-27T10:11:41;23.10;1.00
1592;DHT22;789;51.612;7.510;2022-08-27T10:14:13;23.20;1.00
1592;DHT22;789;51.612;7.510;2022-08-27T10:17:04;23.30;1.00
1592;DHT22;789;51.612;7.510;2022-08-27T10:19:45;23.70;1.00
1592;DHT22;789;51.612;7.510;2022-08-27T10:22:25;23.60;1.00
1592;DHT22;789;51.612;7.510;2022-08-27T10:25:02;23.70;1.00
1592;DHT22;789;51.612;7.510;2022-08-27T10:27:35;23.80;1.00
1592;DHT22;789;51.612;7.510;2022-08-27T10:30:07;23.90;1.00
1592;DHT22;789;51.612;7.510;2022-08-27T10:32:45;24.00;1.00
1592;DHT22;789;51.612;7.510;2022-08-27T10:35:20;24.20;1.00
1592;DHT22;789;51.612;7.510;2022-08-27T10:37:57;24.30;1.00
1592;DHT22;789;51.612;7.510;2022-08-27T10:40:31;24.40;1.00
1592;DHT22;789;51.612;7.510;2022-08-27T10:43:08;24.60;1.00
1592;DHT22;789;51.612;7.510;2022-08-27T10:45:45;24.80;1.00
1592;DHT22;789;51.612;7.510;2022-08-27T10:48:20;25.10;1.00
1592;DHT22;789;51.612;7.510;2022-08-27T10:50:55;25.40;1.00
1592;DHT22;789;51.612;7.510;2022-08-27T10:53:39;25.80;1.00
1592;DHT22;789;51.612;7.510;2022-08-27T10:56:14;25.80;1.00
1592;DHT22;789;51.612;7.510;2022-08-27T10:58:52;25.60;1.00
1592;DHT22;789;51.612;7.510;2022-08-27T11:01:32;25.40;1.00
1592;DHT22;789;51.612;7.510;2022-08-27T11:04:06;25.20;1.00
1592;DHT22;789;51.612;7.510;2022-08-27T11:06:38;24.90;1.00
1592;DHT22;789;51.612;7.510;2022-08-27T11:09:12;24.90;1.00
1592;DHT22;789;51.612;7.510;2022-08-27T11:11:43;24.40;1.00
1592;DHT22;789;51.612;7.510;2022-08-27T11:14:23;24.30;1.00
1592;DHT22;789;51.612;7.510;2022-08-27T11:16:56;24.10;1.00
1592;DHT22;789;51.612;7.510;2022-08-27T11:19:29;24.10;1.00
1592;DHT22;789;51.612;7.510;2022-08-27T11:22:03;24.20;1.00
1592;DHT22;789;51.612;7.510;2022-08-27T11:24:35;24.20;1.00
1592;DHT22;789;51.612;7.510;2022-08-27T11:27:06;24.20;1.00
1592;DHT22;789;51.612;7.510;2022-08-27T11:29:37;24.30;1.00
1592;DHT22;789;51.612;7.510;2022-08-27T11:32:14;24.50;1.00
1592;DHT22;789;51.612;7.510;2022-08-27T11:34:46;24.60;1.00
1592;DHT22;789;51.612;7.510;2022-08-27T11:37:38;24.80;1.00
1592;DHT22;789;51.612;7.510;2022-08-27T11:40:26;24.70;1.00
1592;DHT22;789;51.612;7.510;2022-08-27T11:42:57;24.60;1.00
1592;DHT22;789;51.612;7.510;2022-08-27T11:45:29;24.60;1.00
1592;DHT22;789;51.612;7.510;2022-08-27T11:48:15;24.70;1.00
1592;DHT22;789;51.612;7.510;2022-08-27T11:50:57;24.70;1.00
1592;DHT22;789;51.612;7.510;2022-08-27T11:53:30;24.80;1.00
1592;DHT22;789;51.612;7.510;2022-08-27T11:56:08;24.70;1.00
1592;DHT22;789;51.612;7.510;2022-08-27T11:58:35;24.60;1.00
1592;DHT22;789;51.612;7.510;2022-08-27T12:01:02;24.60;1.00
1592;DHT22;789;51.612;7.510;2022-08-27T12:03:40;24.50;1.00
1592;DHT22;789;51.612;7.510;2022-08-27T12:06:16;24.40;1.00
1592;DHT22;789;51.612;7.510;2022-08-27T12:08:45;24.50;1.00
1592;DHT22;789;51.612;7.510;2022-08-27T12:11:25;24.70;1.00
1592;DHT22;789;51.612;7.510;2022-08-27T12:14:04;24.30;1.00
1592;DHT22;789;51.612;7.510;2022-08-27T12:16:40;24.70;1.00
1592;DHT22;789;51.612;7.510;2022-08-27T12:19:30;24.20;1.00
1592;DHT22;789;51.612;7.510;2022-08-27T12:22:21;24.20;1.00
1592;DHT22;789;51.612;7.510;2022-08-27T12:24:55;24.20;1.00
1592;DHT22;789;51.612;7.510;2022-08-27T12:27:32;24.20;1.00
1592;DHT22;789;51.612;7.510;2022-08-27T12:30:29;24.20;1.00
1592;DHT22;789;51.612;7.510;2022-08-27T12:32:55;24.10;1.00
1592;DHT22;789;51.612;7.510;2022-08-27T12:35:30;24.00;1.00
1592;DHT22;789;51.612;7.510;2022-08-27T12:38:08;24.10;1.00
1592;DHT22;789;51.612;7.510;2022-08-27T12:40:40;24.20;1.00
1592;DHT22;789;51.612;7.510;2022-08-27T12:43:09;24.40;1.00
1592;DHT22;789;51.612;7.510;2022-08-27T12:45:44;24.50;1.00
1592;DHT22;789;51.612;7.510;2022-08-27T12:48:17;24.70;1.00
1592;DHT22;789;51.612;7.510;2022-08-27T12:50:51;24.90;1.00
1592;DHT22;789;51.612;7.510;2022-08-27T12:53:39;25.10;1.00
1592;DHT22;789;51.612;7.510;2022-08-27T12:56:22;25.30;1.00
1592;DHT22;789;51.612;7.510;2022-08-27T12:58:57;25.40;1.00
1592;DHT22;789;51.612;7.510;2022-08-27T13:01:37;25.50;1.00
1592;DHT22;789;51.612;7.510;2022-08-27T13:04:19;25.70;1.00
1592;DHT22;789;51.612;7.510;2022-08-27T13:06:49;25.80;1.00
1592;DHT22;789;51.612;7.510;2022-08-27T13:09:25;25.90;1.00
1592;DHT22;789;51.612;7.510;2022-08-27T13:11:51;25.90;1.00
1592;DHT22;789;51.612;7.510;2022-08-27T13:14:23;25.90;1.00
1592;DHT22;789;51.612;7.510;2022-08-27T13:16:51;25.90;1.00
1592;DHT22;789;51.612;7.510;2022-08-27T13:19:24;25.70;1.00
1592;DHT22;789;51.612;7.510;2022-08-27T13:21:51;25.60;1.00
1592;DHT22;789;51.612;7.510;2022-08-27T13:24:25;25.60;1.00
1592;DHT22;789;51.612;7.510;2022-08-27T13:26:52;25.70;1.00
1592;DHT22;789;51.612;7.510;2022-08-27T13:29:19;25.70;1.00
1592;DHT22;789;51.612;7.510;2022-08-27T13:31:46;25.90;1.00
1592;DHT22;789;51.612;7.510;2022-08-27T13:34:17;26.00;1.00
1592;DHT22;789;51.612;7.510;2022-08-27T13:36:55;26.20;1.00
1592;DHT22;789;51.612;7.510;2022-08-27T13:39:24;26.30;1.00
1592;DHT22;789;51.612;7.510;2022-08-27T13:41:57;26.30;1.00
1592;DHT22;789;51.612;7.510;2022-08-27T13:44:29;26.20;1.00
1592;DHT22;789;51.612;7.510;2022-08-27T13:46:59;26.00;1.00
1592;DHT22;789;51.612;7.510;2022-08-27T13:49:28;25.80;1.00
1592;DHT22;789;51.612;7.510;2022-08-27T13:52:01;25.60;1.00
1592;DHT22;789;51.612;7.510;2022-08-27T13:54:30;25.40;1.00
1592;DHT22;789;51.612;7.510;2022-08-27T13:57:02;25.20;1.00
1592;DHT22;789;51.612;7.510;2022-08-27T13:59:34;25.00;1.00
1592;DHT22;789;51.612;7.510;2022-08-27T14:02:17;24.90;1.00
1592;DHT22;789;51.612;7.510;2022-08-27T14:04:47;24.80;1.00
1592;DHT22;789;51.612;7.510;2022-08-27T14:07:25;24.70;1.00
1592;DHT22;789;51.612;7.510;2022-08-27T14:09:54;24.70;1.00
1592;DHT22;789;51.612;7.510;2022-08-27T14:12:27;24.70;1.00
1592;DHT22;789;51.612;7.510;2022-08-27T14:14:55;24.60;1.00
1592;DHT22;789;51.612;7.510;2022-08-27T14:17:24;24.70;1.00
1592;DHT22;789;51.612;7.510;2022-08-27T14:19:52;24.60;1.00
1592;DHT22;789;51.612;7.510;2022-08-27T14:22:28;24.70;1.00
1592;DHT22;789;51.612;7.510;2022-08-27T14:24:58;24.70;1.00
1592;DHT22;789;51.612;7.510;2022-08-27T14:27:24;24.80;1.00
1592;DHT22;789;51.612;7.510;2022-08-27T14:29:51;24.70;1.00
1592;DHT22;789;51.612;7.510;2022-08-27T14:32:21;24.80;1.00
1592;DHT22;789;51.612;7.510;2022-08-27T14:34:48;24.90;1.00
1592;DHT22;789;51.612;7.510;2022-08-27T14:37:14;25.30;1.00
1592;DHT22;789;51.612;7.510;2022-08-27T14:39:43;25.10;1.00
1592;DHT22;789;51.612;7.510;2022-08-27T14:42:12;25.00;1.00
1592;DHT22;789;51.612;7.510;2022-08-27T14:44:39;25.00;1.00
1592;DHT22;789;51.612;7.510;2022-08-27T14:47:06;25.10;1.00
1592;DHT22;789;51.612;7.510;2022-08-27T14:49:36;25.10;1.00
1592;DHT22;789;51.612;7.510;2022-08-27T14:52:06;25.20;1.00
1592;DHT22;789;51.612;7.510;2022-08-27T14:54:34;25.30;1.00
1592;DHT22;789;51.612;7.510;2022-08-27T14:57:03;25.40;1.00
1592;DHT22;789;51.612;7.510;2022-08-27T14:59:31;25.40;1.00
1592;DHT22;789;51.612;7.510;2022-08-27T15:02:03;25.50;1.00
1592;DHT22;789;51.612;7.510;2022-08-27T15:04:30;25.40;1.00
1592;DHT22;789;51.612;7.510;2022-08-27T15:06:58;25.30;1.00
1592;DHT22;789;51.612;7.510;2022-08-27T15:09:24;25.40;1.00
1592;DHT22;789;51.612;7.510;2022-08-27T15:11:53;25.20;1.00
1592;DHT22;789;51.612;7.510;2022-08-27T15:14:26;25.10;1.00
1592;DHT22;789;51.612;7.510;2022-08-27T15:16:53;25.10;1.00
1592;DHT22;789;51.612;7.510;2022-08-27T15:19:22;25.00;1.00
1592;DHT22;789;51.612;7.510;2022-08-27T15:21:50;25.00;1.00
1592;DHT22;789;51.612;7.510;2022-08-27T15:24:20;25.00;1.00
1592;DHT22;789;51.612;7.510;2022-08-27T15:26:49;25.00;1.00
1592;DHT22;789;51.612;7.510;2022-08-27T15:29:16;25.00;1.00
1592;DHT22;789;51.612;7.510;2022-08-27T15:31:44;25.00;1.00
1592;DHT22;789;51.612;7.510;2022-08-27T15:34:12;24.80;1.00
1592;DHT22;789;51.612;7.510;2022-08-27T15:36:41;24.70;1.00
1592;DHT22;789;51.612;7.510;2022-08-27T15:39:08;24.60;1.00
1592;DHT22;789;51.612;7.510;2022-08-27T15:41:38;24.60;1.00
1592;DHT22;789;51.612;7.510;2022-08-27T15:44:07;24.60;1.00
1592;DHT22;789;51.612;7.510;2022-08-27T15:46:34;24.60;1.00
1592;DHT22;789;51.612;7.510;2022-08-27T15:49:12;24.60;1.00
1592;DHT22;789;51.612;7.510;2022-08-27T15:51:39;24.60;1.00
1592;DHT22;789;51.612;7.510;2022-08-27T15:54:06;24.60;1.00
1592;DHT22;789;51.612;7.510;2022-08-27T15:56:33;24.60;1.00
1592;DHT22;789;51.612;7.510;2022-08-27T15:59:00;24.60;1.00
1592;DHT22;789;51.612;7.510;2022-08-27T16:01:29;24.50;1.00
1592;DHT22;789;51.612;7.510;2022-08-27T16:03:57;24.50;1.00
1592;DHT22;789;51.612;7.510;2022-08-27T16:06:26;24.50;1.00
1592;DHT22;789;51.612;7.510;2022-08-27T16:08:53;24.60;1.00
1592;DHT22;789;51.612;7.510;2022-08-27T16:11:23;24.50;1.00
1592;DHT22;789;51.612;7.510;2022-08-27T16:13:50;24.50;1.00
1592;DHT22;789;51.612;7.510;2022-08-27T16:16:21;24.40;1.00
1592;DHT22;789;51.612;7.510;2022-08-27T16:18:48;24.30;1.00
1592;DHT22;789;51.612;7.510;2022-08-27T16:21:15;24.30;1.00
1592;DHT22;789;51.612;7.510;2022-08-27T16:23:43;24.30;1.00
1592;DHT22;789;51.612;7.510;2022-08-27T16:26:10;24.30;1.00
1592;DHT22;789;51.612;7.510;2022-08-27T16:28:36;24.30;1.00
1592;DHT22;789;51.612;7.510;2022-08-27T16:31:05;24.30;1.00
1592;DHT22;789;51.612;7.510;2022-08-27T16:33:31;24.30;1.00
1592;DHT22;789;51.612;7.510;2022-08-27T16:35:58;24.30;1.00
1592;DHT22;789;51.612;7.510;2022-08-27T16:38:25;24.30;1.00
1592;DHT22;789;51.612;7.510;2022-08-27T16:40:54;24.20;1.00
1592;DHT22;789;51.612;7.510;2022-08-27T16:43:23;24.10;1.00
1592;DHT22;789;51.612;7.510;2022-08-27T16:45:52;24.10;1.00
1592;DHT22;789;51.612;7.510;2022-08-27T16:48:20;24.00;1.00
1592;DHT22;789;51.612;7.510;2022-08-27T16:51:06;23.90;1.00
1592;DHT22;789;51.612;7.510;2022-08-27T16:53:37;23.90;1.00
1592;DHT22;789;51.612;7.510;2022-08-27T16:56:06;23.80;1.00
1592;DHT22;789;51.612;7.510;2022-08-27T16:58:34;23.80;1.00